createdAt,value
2018-07-22T00:00:29.178Z,0.00
2018-07-22T00:01:41.371Z,0.00
2018-07-22T00:02:42.507Z,0.00
2018-07-22T00:03:47.835Z,0.00
2018-07-22T00:04:57.160Z,0.00
2018-07-22T00:05:57.679Z,0.00
2018-07-22T00:07:01.782Z,0.00
2018-07-22T00:08:07.215Z,0.00
2018-07-22T00:09:15.416Z,0.00
2018-07-22T00:10:26.895Z,0.00
2018-07-22T00:11:31.097Z,0.00
2018-07-22T00:12:31.719Z,0.00
2018-07-22T00:13:39.508Z,0.00
2018-07-22T00:14:51.217Z,0.00
2018-07-22T00:15:45.933Z,0.00
2018-07-22T00:16:59.188Z,0.00
2018-07-22T00:18:00.468Z,0.00
2018-07-22T00:19:02.175Z,0.00
2018-07-22T00:21:14.686Z,0.00
2018-07-22T00:22:24.003Z,0.00
2018-07-22T00:23:27.287Z,0.00
2018-07-22T00:24:32.822Z,0.00
2018-07-22T00:25:40.518Z,0.00
2018-07-22T00:27:50.047Z,0.00
2018-07-22T00:29:00.907Z,0.00
2018-07-22T00:31:11.469Z,0.00
2018-07-22T00:32:13.217Z,0.00
2018-07-22T00:33:18.655Z,0.00
2018-07-22T00:34:27.567Z,0.00
2018-07-22T00:35:36.789Z,0.00
2018-07-22T00:36:35.772Z,0.00
2018-07-22T00:38:46.947Z,0.00
2018-07-22T00:40:57.098Z,0.00
2018-07-22T00:42:03.052Z,0.00
2018-07-22T00:43:11.037Z,0.00
2018-07-22T00:44:14.536Z,0.00
2018-07-22T00:45:16.274Z,0.00
2018-07-22T00:47:26.631Z,0.00
2018-07-22T00:48:33.294Z,0.00
2018-07-22T00:49:41.669Z,0.00
2018-07-22T00:50:38.332Z,0.00
2018-07-22T00:51:49.708Z,0.00
2018-07-22T00:54:05.070Z,0.00
2018-07-22T00:57:19.020Z,0.00
2018-07-22T00:58:31.928Z,0.00
2018-07-22T00:59:32.659Z,0.00
2018-07-22T01:00:31.965Z,0.00
2018-07-22T01:01:33.483Z,0.00
2018-07-22T01:03:56.334Z,0.00
2018-07-22T01:04:55.668Z,0.00
2018-07-22T01:06:02.188Z,0.00
2018-07-22T01:08:15.243Z,0.00
2018-07-22T01:09:21.251Z,0.00
2018-07-22T01:10:26.274Z,0.00
2018-07-22T01:11:28.851Z,0.00
2018-07-22T01:12:32.127Z,0.00
2018-07-22T01:13:41.042Z,0.00
2018-07-22T01:14:47.705Z,0.00
2018-07-22T01:15:57.028Z,0.00
2018-07-22T01:16:57.854Z,0.00
2018-07-22T01:18:04.838Z,0.00
2018-07-22T01:19:03.706Z,0.00
2018-07-22T01:20:14.976Z,0.00
2018-07-22T01:21:26.963Z,0.00
2018-07-22T01:22:27.483Z,0.00
2018-07-22T01:23:34.864Z,0.00
2018-07-22T01:24:37.690Z,0.00
2018-07-22T01:25:54.026Z,0.00
2018-07-22T01:26:45.020Z,0.00
2018-07-22T01:27:57.418Z,0.00
2018-07-22T01:30:05.319Z,0.00
2018-07-22T01:31:14.231Z,0.00
2018-07-22T01:32:25.401Z,0.00
2018-07-22T01:33:27.866Z,0.00
2018-07-22T01:34:19.673Z,0.00
2018-07-22T01:35:34.738Z,0.00
2018-07-22T01:36:44.371Z,0.00
2018-07-22T01:37:44.676Z,0.00
2018-07-22T01:38:57.389Z,0.00
2018-07-22T01:39:56.074Z,0.00
2018-07-22T01:41:02.216Z,0.00
2018-07-22T01:42:06.625Z,0.00
2018-07-22T01:43:09.209Z,0.00
2018-07-22T01:44:20.361Z,0.00
2018-07-22T01:45:17.400Z,0.00
2018-07-22T01:46:25.904Z,0.00
2018-07-22T01:48:36.262Z,0.00
2018-07-22T01:49:48.350Z,0.00
2018-07-22T01:50:47.537Z,0.00
2018-07-22T01:52:05.876Z,0.00
2018-07-22T01:52:56.259Z,0.00
2018-07-22T01:54:10.187Z,0.00
2018-07-22T01:56:23.269Z,0.00
2018-07-22T01:57:24.653Z,0.00
2018-07-22T01:58:37.251Z,0.00
2018-07-22T01:59:33.877Z,0.00
2018-07-22T02:00:34.244Z,0.00
2018-07-22T02:01:46.088Z,0.00
2018-07-22T02:02:47.619Z,0.00
2018-07-22T02:03:58.890Z,0.00
2018-07-22T02:05:02.483Z,0.00
2018-07-22T02:07:18.573Z,0.00
2018-07-22T02:08:16.542Z,0.00
2018-07-22T02:09:16.846Z,0.00
2018-07-22T02:10:36.922Z,0.00
2018-07-22T02:11:28.942Z,0.00
2018-07-22T02:12:45.127Z,0.00
2018-07-22T02:13:49.802Z,0.00
2018-07-22T02:14:54.971Z,0.00
2018-07-22T02:15:52.930Z,0.00
2018-07-22T02:17:01.232Z,0.00
2018-07-22T02:18:11.990Z,0.00
2018-07-22T02:19:07.687Z,0.00
2018-07-22T02:20:15.281Z,0.00
2018-07-22T02:21:26.653Z,0.00
2018-07-22T02:22:32.087Z,0.00
2018-07-22T02:24:38.757Z,0.00
2018-07-22T02:25:51.741Z,0.00
2018-07-22T02:26:58.124Z,0.00
2018-07-22T02:27:58.234Z,0.00
2018-07-22T02:29:04.692Z,0.00
2018-07-22T02:30:05.416Z,0.00
2018-07-22T02:31:14.692Z,0.00
2018-07-22T02:32:21.407Z,0.00
2018-07-22T02:35:31.972Z,0.00
2018-07-22T02:36:52.150Z,0.00
2018-07-22T02:38:56.260Z,0.00
2018-07-22T02:40:06.694Z,0.00
2018-07-22T02:41:09.588Z,0.00
2018-07-22T02:42:01.606Z,0.00
2018-07-22T02:43:15.949Z,0.00
2018-07-22T02:44:15.696Z,0.00
2018-07-22T02:45:24.461Z,0.00
2018-07-22T02:47:34.305Z,0.00
2018-07-22T02:49:44.559Z,0.00
2018-07-22T02:50:52.600Z,0.00
2018-07-22T02:52:07.613Z,0.00
2018-07-22T02:52:54.324Z,0.00
2018-07-22T02:54:10.217Z,0.00
2018-07-22T02:55:09.272Z,0.00
2018-07-22T02:56:19.109Z,0.00
2018-07-22T02:57:23.804Z,0.00
2018-07-22T02:58:35.611Z,0.00
2018-07-22T02:59:33.465Z,0.00
2018-07-22T03:00:42.922Z,0.00
2018-07-22T03:01:51.810Z,0.00
2018-07-22T03:02:52.942Z,0.00
2018-07-22T03:03:57.146Z,0.00
2018-07-22T03:05:09.655Z,0.00
2018-07-22T03:06:04.123Z,0.00
2018-07-22T03:07:09.557Z,0.00
2018-07-22T03:08:12.639Z,0.00
2018-07-22T03:09:28.719Z,0.00
2018-07-22T03:10:43.325Z,0.00
2018-07-22T03:11:37.442Z,0.00
2018-07-22T03:12:53.011Z,0.00
2018-07-22T03:13:52.613Z,0.00
2018-07-22T03:14:54.968Z,0.00
2018-07-22T03:17:05.120Z,0.00
2018-07-22T03:18:10.144Z,0.00
2018-07-22T03:19:18.958Z,4.00
2018-07-22T03:20:23.162Z,0.00
2018-07-22T03:22:34.031Z,0.00
2018-07-22T03:23:33.220Z,0.00
2018-07-22T03:24:43.876Z,4.00
2018-07-22T03:25:55.263Z,4.00
2018-07-22T03:26:58.021Z,0.00
2018-07-22T03:28:09.095Z,0.00
2018-07-22T03:29:10.326Z,4.00
2018-07-22T03:30:12.889Z,4.00
2018-07-22T03:31:16.322Z,4.00
2018-07-22T03:32:25.316Z,4.00
2018-07-22T03:33:31.649Z,4.00
2018-07-22T03:34:34.010Z,4.00
2018-07-22T03:35:46.511Z,4.00
2018-07-22T03:36:56.248Z,4.00
2018-07-22T03:37:57.380Z,8.00
2018-07-22T03:38:52.061Z,4.00
2018-07-22T03:39:59.337Z,8.00
2018-07-22T03:41:13.476Z,8.00
2018-07-22T03:42:12.357Z,8.00
2018-07-22T03:43:19.940Z,12.00
2018-07-22T03:44:35.718Z,8.00
2018-07-22T03:45:32.214Z,12.00
2018-07-22T03:46:27.311Z,12.00
2018-07-22T03:48:49.568Z,12.00
2018-07-22T03:50:53.689Z,16.00
2018-07-22T03:51:58.910Z,16.00
2018-07-22T03:53:13.662Z,20.00
2018-07-22T03:54:10.217Z,20.00
2018-07-22T03:55:14.697Z,20.00
2018-07-22T03:56:35.490Z,24.00
2018-07-22T03:57:23.828Z,24.00
2018-07-22T03:58:43.901Z,24.00
2018-07-22T03:59:45.452Z,24.00
2018-07-22T04:01:57.335Z,28.00
2018-07-22T04:04:01.139Z,28.00
2018-07-22T04:05:03.091Z,28.00
2018-07-22T04:06:14.772Z,32.00
2018-07-22T04:07:29.335Z,36.00
2018-07-22T04:08:31.724Z,36.00
2018-07-22T04:09:29.970Z,36.00
2018-07-22T04:10:34.767Z,36.00
2018-07-22T04:11:46.141Z,36.00
2018-07-22T04:12:45.941Z,40.00
2018-07-22T04:13:57.729Z,40.00
2018-07-22T04:16:07.727Z,44.00
2018-07-22T04:17:07.372Z,44.00
2018-07-22T04:20:25.825Z,52.00
2018-07-22T04:21:26.607Z,48.00
2018-07-22T04:22:32.288Z,52.00
2018-07-22T04:23:50.728Z,52.00
2018-07-22T04:25:51.738Z,60.00
2018-07-22T04:26:52.898Z,56.00
2018-07-22T04:28:23.114Z,60.00
2018-07-22T04:29:25.476Z,60.00
2018-07-22T04:31:23.550Z,64.00
2018-07-22T04:32:36.863Z,64.00
2018-07-22T04:33:31.441Z,68.00
2018-07-22T04:34:41.792Z,68.00
2018-07-22T04:35:49.172Z,72.00
2018-07-22T04:36:53.069Z,72.00
2018-07-22T04:37:52.665Z,76.00
2018-07-22T04:39:06.733Z,76.00
2018-07-22T04:40:04.557Z,76.00
2018-07-22T04:41:10.605Z,80.00
2018-07-22T04:43:25.161Z,84.00
2018-07-22T04:44:28.353Z,88.00
2018-07-22T04:45:32.861Z,84.00
2018-07-22T04:46:36.751Z,88.00
2018-07-22T04:47:48.228Z,92.00
2018-07-22T04:48:42.098Z,92.00
2018-07-22T04:51:06.357Z,92.00
2018-07-22T04:52:06.736Z,96.00
2018-07-22T04:53:02.600Z,100.00
2018-07-22T04:54:14.892Z,100.00
2018-07-22T04:55:23.296Z,104.00
2018-07-22T04:56:26.784Z,104.00
2018-07-22T04:58:38.741Z,108.00
2018-07-22T05:02:02.658Z,112.00
2018-07-22T05:02:59.739Z,112.00
2018-07-22T05:04:17.725Z,116.00
2018-07-22T05:05:10.666Z,116.00
2018-07-22T05:06:21.630Z,120.00
2018-07-22T05:07:17.336Z,120.00
2018-07-22T05:08:38.540Z,120.00
2018-07-22T05:09:41.721Z,124.00
2018-07-22T05:10:35.174Z,124.00
2018-07-22T05:11:48.605Z,124.00
2018-07-22T05:12:49.216Z,128.00
2018-07-22T05:13:58.235Z,124.00
2018-07-22T05:15:02.743Z,128.00
2018-07-22T05:17:14.435Z,132.00
2018-07-22T05:19:18.646Z,136.00
2018-07-22T05:20:43.872Z,136.00
2018-07-22T05:21:34.326Z,140.00
2018-07-22T05:22:38.746Z,140.00
2018-07-22T05:23:43.353Z,140.00
2018-07-22T05:24:51.087Z,144.00
2018-07-22T05:25:51.148Z,144.00
2018-07-22T05:27:04.979Z,148.00
2018-07-22T05:28:07.443Z,148.00
2018-07-22T05:29:09.751Z,148.00
2018-07-22T05:32:34.711Z,152.00
2018-07-22T05:33:35.227Z,156.00
2018-07-22T05:34:40.756Z,152.00
2018-07-22T05:35:49.578Z,156.00
2018-07-22T05:36:53.751Z,156.00
2018-07-22T05:38:05.380Z,160.00
2018-07-22T05:39:01.580Z,160.00
2018-07-22T05:40:10.391Z,160.00
2018-07-22T05:41:17.668Z,160.00
2018-07-22T05:42:25.152Z,164.00
2018-07-22T05:43:29.255Z,164.00
2018-07-22T05:45:32.595Z,164.00
2018-07-22T05:46:40.648Z,164.00
2018-07-22T05:47:43.514Z,164.00
2018-07-22T05:48:53.658Z,168.00
2018-07-22T05:49:54.485Z,168.00
2018-07-22T05:50:56.138Z,172.00
2018-07-22T05:52:05.864Z,172.00
2018-07-22T05:53:12.630Z,176.00
2018-07-22T05:54:23.081Z,172.00
2018-07-22T05:57:39.487Z,176.00
2018-07-22T05:58:42.055Z,176.00
2018-07-22T06:00:00.799Z,180.00
2018-07-22T06:00:56.403Z,184.00
2018-07-22T06:03:03.224Z,188.00
2018-07-22T06:04:11.271Z,188.00
2018-07-22T06:05:13.225Z,172.00
2018-07-22T06:07:37.100Z,176.00
2018-07-22T06:08:34.031Z,180.00
2018-07-22T06:09:36.760Z,176.00
2018-07-22T06:10:41.625Z,180.00
2018-07-22T06:11:51.295Z,180.00
2018-07-22T06:13:02.935Z,184.00
2018-07-22T06:14:01.202Z,180.00
2018-07-22T06:15:10.762Z,192.00
2018-07-22T06:16:11.967Z,196.00
2018-07-22T06:17:13.714Z,196.00
2018-07-22T06:18:28.065Z,208.00
2018-07-22T06:21:40.365Z,200.00
2018-07-22T06:22:32.794Z,208.00
2018-07-22T06:23:54.818Z,204.00
2018-07-22T06:24:48.988Z,192.00
2018-07-22T06:26:00.765Z,192.00
2018-07-22T06:27:03.764Z,200.00
2018-07-22T06:28:00.886Z,200.00
2018-07-22T06:29:25.982Z,196.00
2018-07-22T06:30:22.819Z,192.00
2018-07-22T06:32:28.706Z,192.00
2018-07-22T06:34:45.268Z,208.00
2018-07-22T06:35:51.733Z,228.00
2018-07-22T06:36:54.412Z,212.00
2018-07-22T06:37:57.270Z,200.00
2018-07-22T06:39:08.345Z,200.00
2018-07-22T06:40:11.208Z,212.00
2018-07-22T06:41:18.998Z,212.00
2018-07-22T06:42:20.642Z,208.00
2018-07-22T06:43:30.890Z,208.00
2018-07-22T06:45:32.646Z,200.00
2018-07-22T06:47:45.913Z,204.00
2018-07-22T06:50:04.416Z,212.00
2018-07-22T06:52:12.930Z,212.00
2018-07-22T06:55:28.034Z,204.00
2018-07-22T06:56:38.454Z,204.00
2018-07-22T06:57:39.697Z,204.00
2018-07-22T06:58:54.225Z,204.00
2018-07-22T06:59:57.829Z,204.00
2018-07-22T07:00:54.374Z,204.00
2018-07-22T07:02:01.937Z,208.00
2018-07-22T07:03:16.689Z,212.00
2018-07-22T07:04:10.759Z,212.00
2018-07-22T07:05:33.424Z,216.00
2018-07-22T07:06:18.758Z,220.00
2018-07-22T07:07:34.229Z,220.00
2018-07-22T07:08:32.917Z,220.00
2018-07-22T07:09:40.794Z,220.00
2018-07-22T07:10:39.779Z,220.00
2018-07-22T07:11:48.169Z,220.00
2018-07-22T07:12:52.780Z,224.00
2018-07-22T07:13:58.745Z,224.00
2018-07-22T07:15:12.779Z,228.00
2018-07-22T07:16:17.195Z,224.00
2018-07-22T07:17:28.933Z,232.00
2018-07-22T07:18:32.357Z,232.00
2018-07-22T07:19:29.190Z,232.00
2018-07-22T07:20:38.718Z,232.00
2018-07-22T07:21:45.183Z,236.00
2018-07-22T07:22:54.502Z,236.00
2018-07-22T07:23:55.943Z,236.00
2018-07-22T07:25:03.324Z,240.00
2018-07-22T07:26:01.997Z,244.00
2018-07-22T07:27:01.947Z,244.00
2018-07-22T07:28:13.435Z,248.00
2018-07-22T07:29:23.635Z,244.00
2018-07-22T07:30:22.788Z,248.00
2018-07-22T07:31:27.325Z,252.00
2018-07-22T07:32:33.682Z,256.00
2018-07-22T07:34:49.879Z,256.00
2018-07-22T07:37:04.841Z,256.00
2018-07-22T07:38:16.418Z,260.00
2018-07-22T07:39:09.868Z,260.00
2018-07-22T07:40:14.789Z,264.00
2018-07-22T07:41:16.744Z,136.00
2018-07-22T07:42:24.589Z,112.00
2018-07-22T07:43:26.792Z,176.00
2018-07-22T07:44:33.790Z,268.00
2018-07-22T07:45:48.411Z,272.00
2018-07-22T07:46:45.559Z,272.00
2018-07-22T07:47:57.235Z,272.00
2018-07-22T07:50:13.632Z,276.00
2018-07-22T07:54:23.385Z,280.00
2018-07-22T07:55:35.484Z,284.00
2018-07-22T07:56:37.223Z,284.00
2018-07-22T07:58:52.495Z,284.00
2018-07-22T07:59:59.566Z,280.00
2018-07-22T08:02:08.490Z,284.00
2018-07-22T08:03:24.676Z,284.00
2018-07-22T08:04:25.299Z,288.00
2018-07-22T08:05:33.965Z,296.00
2018-07-22T08:06:26.845Z,296.00
2018-07-22T08:07:42.807Z,296.00
2018-07-22T08:09:45.094Z,224.00
2018-07-22T08:10:50.528Z,228.00
2018-07-22T08:14:17.996Z,228.00
2018-07-22T08:16:27.538Z,224.00
2018-07-22T08:17:28.148Z,224.00
2018-07-22T08:18:32.153Z,224.00
2018-07-22T08:19:38.198Z,228.00
2018-07-22T08:20:49.879Z,220.00
2018-07-22T08:21:40.861Z,228.00
2018-07-22T08:22:54.808Z,232.00
2018-07-22T08:24:05.875Z,236.00
2018-07-22T08:26:06.447Z,244.00
2018-07-22T08:27:26.477Z,248.00
2018-07-22T08:28:32.422Z,256.00
2018-07-22T08:29:28.639Z,264.00
2018-07-22T08:30:43.496Z,272.00
2018-07-22T08:31:39.807Z,248.00
2018-07-22T08:32:54.774Z,264.00
2018-07-22T08:33:42.184Z,280.00
2018-07-22T08:34:54.806Z,288.00
2018-07-22T08:35:45.379Z,284.00
2018-07-22T08:37:13.028Z,280.00
2018-07-22T08:38:21.330Z,296.00
2018-07-22T08:40:27.793Z,300.00
2018-07-22T08:41:40.475Z,296.00
2018-07-22T08:42:29.855Z,304.00
2018-07-22T08:43:40.810Z,304.00
2018-07-22T08:44:51.578Z,288.00
2018-07-22T08:45:56.749Z,292.00
2018-07-22T08:47:01.934Z,364.00
2018-07-22T08:48:09.007Z,380.00
2018-07-22T08:49:09.117Z,388.00
2018-07-22T08:51:31.666Z,388.00
2018-07-22T08:52:52.450Z,384.00
2018-07-22T08:53:38.532Z,384.00
2018-07-22T08:54:43.055Z,396.00
2018-07-22T08:55:31.480Z,380.00
2018-07-22T08:57:14.502Z,372.00
2018-07-22T08:58:25.460Z,392.00
2018-07-22T09:00:15.436Z,412.00
2018-07-22T09:01:57.020Z,420.00
2018-07-22T09:02:30.825Z,424.00
2018-07-22T09:04:17.003Z,424.00
2018-07-22T09:05:56.128Z,424.00
2018-07-22T09:07:30.232Z,404.00
2018-07-22T09:08:49.695Z,404.00
2018-07-22T09:11:02.301Z,412.00
2018-07-22T09:12:09.690Z,412.00
2018-07-22T09:13:10.611Z,380.00
2018-07-22T09:13:49.419Z,412.00
2018-07-22T09:14:54.445Z,420.00
2018-07-22T09:16:12.501Z,424.00
2018-07-22T09:17:07.494Z,424.00
2018-07-22T09:19:31.748Z,380.00
2018-07-22T09:20:19.496Z,424.00
2018-07-22T09:21:31.967Z,424.00
2018-07-22T09:22:30.845Z,428.00
2018-07-22T09:23:29.822Z,428.00
2018-07-22T09:24:53.079Z,424.00
2018-07-22T09:25:34.248Z,436.00
2018-07-22T09:26:59.242Z,432.00
2018-07-22T09:27:58.221Z,440.00
2018-07-22T09:28:56.281Z,444.00
2018-07-22T09:30:02.234Z,444.00
2018-07-22T09:31:04.589Z,444.00
2018-07-22T09:32:14.428Z,448.00
2018-07-22T09:34:33.593Z,452.00
2018-07-22T09:35:28.782Z,448.00
2018-07-22T09:36:46.710Z,464.00
2018-07-22T09:37:34.940Z,460.00
2018-07-22T09:38:37.107Z,456.00
2018-07-22T09:39:43.146Z,460.00
2018-07-22T09:41:00.152Z,468.00
2018-07-22T09:42:10.092Z,460.00
2018-07-22T09:43:00.369Z,464.00
2018-07-22T09:44:11.435Z,464.00
2018-07-22T09:45:11.544Z,468.00
2018-07-22T09:46:21.484Z,472.00
2018-07-22T09:47:25.594Z,480.00
2018-07-22T09:49:40.658Z,484.00
2018-07-22T09:50:40.872Z,468.00
2018-07-22T09:51:51.513Z,480.00
2018-07-22T09:53:03.514Z,488.00
2018-07-22T09:54:01.981Z,488.00
2018-07-22T09:55:12.126Z,496.00
2018-07-22T09:56:27.082Z,496.00
2018-07-22T09:57:17.873Z,504.00
2018-07-22T09:58:33.147Z,504.00
2018-07-22T09:59:35.811Z,504.00
2018-07-22T10:00:33.355Z,504.00
2018-07-22T10:01:52.204Z,508.00
2018-07-22T10:02:46.477Z,508.00
2018-07-22T10:03:59.181Z,508.00
2018-07-22T10:04:59.524Z,508.00
2018-07-22T10:06:20.022Z,516.00
2018-07-22T10:07:11.592Z,516.00
2018-07-22T10:08:13.851Z,520.00
2018-07-22T10:09:22.052Z,524.00
2018-07-22T10:11:36.847Z,536.00
2018-07-22T10:12:46.342Z,532.00
2018-07-22T10:14:50.923Z,540.00
2018-07-22T10:15:56.504Z,544.00
2018-07-22T10:17:05.107Z,544.00
2018-07-22T10:18:08.697Z,544.00
2018-07-22T10:19:02.867Z,552.00
2018-07-22T10:20:04.104Z,556.00
2018-07-22T10:21:30.844Z,556.00
2018-07-22T10:24:32.531Z,560.00
2018-07-22T10:26:47.263Z,568.00
2018-07-22T10:27:59.247Z,576.00
2018-07-22T10:29:58.541Z,588.00
2018-07-22T10:31:09.605Z,596.00
2018-07-22T10:32:24.931Z,596.00
2018-07-22T10:33:21.601Z,604.00
2018-07-22T10:34:15.472Z,612.00
2018-07-22T10:37:44.973Z,644.00
2018-07-22T10:38:42.845Z,652.00
2018-07-22T10:39:42.019Z,660.00
2018-07-22T10:42:05.074Z,680.00
2018-07-22T10:43:15.445Z,688.00
2018-07-22T10:44:19.730Z,688.00
2018-07-22T10:46:25.273Z,712.00
2018-07-22T10:47:30.095Z,700.00
2018-07-22T10:48:42.490Z,716.00
2018-07-22T10:50:46.292Z,728.00
2018-07-22T10:52:10.849Z,748.00
2018-07-22T10:53:08.219Z,768.00
2018-07-22T10:54:15.299Z,780.00
2018-07-22T10:55:31.581Z,776.00
2018-07-22T10:56:21.655Z,780.00
2018-07-22T10:59:50.143Z,836.00
2018-07-22T11:01:37.663Z,848.00
2018-07-22T11:03:58.854Z,852.00
2018-07-22T11:05:01.650Z,856.00
2018-07-22T11:06:10.357Z,852.00
2018-07-22T11:07:23.572Z,844.00
2018-07-22T11:08:24.503Z,852.00
2018-07-22T11:09:27.274Z,844.00
2018-07-22T11:10:35.380Z,840.00
2018-07-22T11:11:30.673Z,844.00
2018-07-22T11:12:43.370Z,844.00
2018-07-22T11:13:40.101Z,844.00
2018-07-22T11:14:48.147Z,832.00
2018-07-22T11:15:52.197Z,852.00
2018-07-22T11:17:00.194Z,860.00
2018-07-22T11:19:06.757Z,912.00
2018-07-22T11:21:26.901Z,848.00
2018-07-22T11:22:25.722Z,896.00
2018-07-22T11:23:27.680Z,892.00
2018-07-22T11:24:42.635Z,904.00
2018-07-22T11:26:45.002Z,900.00
2018-07-22T11:27:57.298Z,912.00
2018-07-22T11:29:04.109Z,920.00
2018-07-22T11:31:13.598Z,848.00
2018-07-22T11:32:14.424Z,896.00
2018-07-22T11:33:28.565Z,900.00
2018-07-22T11:34:27.648Z,916.00
2018-07-22T11:35:34.106Z,924.00
2018-07-22T11:36:39.029Z,936.00
2018-07-22T11:38:02.998Z,932.00
2018-07-22T11:39:00.238Z,940.00
2018-07-22T11:40:01.987Z,940.00
2018-07-22T11:41:16.432Z,964.00
2018-07-22T11:42:17.053Z,984.00
2018-07-22T11:43:29.554Z,1000.00
2018-07-22T11:44:32.579Z,1008.00
2018-07-22T11:45:24.651Z,960.00
2018-07-22T11:46:38.996Z,1012.00
2018-07-22T11:47:40.538Z,1060.00
2018-07-22T11:48:44.132Z,1052.00
2018-07-22T11:49:50.175Z,1064.00
2018-07-22T11:50:52.590Z,1052.00
2018-07-22T11:52:09.954Z,1008.00
2018-07-22T11:53:02.689Z,1036.00
2018-07-22T11:54:10.276Z,1020.00
2018-07-22T11:55:09.668Z,1016.00
2018-07-22T11:56:17.352Z,1008.00
2018-07-22T11:58:32.317Z,1032.00
2018-07-22T11:59:32.017Z,1028.00
2018-07-22T12:00:44.124Z,1060.00
2018-07-22T12:02:47.704Z,1144.00
2018-07-22T12:04:03.594Z,1204.00
2018-07-22T12:05:02.259Z,1168.00
2018-07-22T12:06:05.645Z,1156.00
2018-07-22T12:07:11.495Z,1168.00
2018-07-22T12:09:26.249Z,1096.00
2018-07-22T12:10:26.666Z,1004.00
2018-07-22T12:11:43.981Z,988.00
2018-07-22T12:12:48.593Z,732.00
2018-07-22T12:14:52.916Z,808.00
2018-07-22T12:16:06.125Z,840.00
2018-07-22T12:16:59.885Z,892.00
2018-07-22T12:18:09.606Z,1216.00
2018-07-22T12:19:13.312Z,1208.00
2018-07-22T12:21:32.781Z,924.00
2018-07-22T12:23:40.073Z,920.00
2018-07-22T12:24:44.067Z,772.00
2018-07-22T12:25:46.938Z,900.00
2018-07-22T12:26:56.879Z,936.00
2018-07-22T12:28:00.218Z,748.00
2018-07-22T12:30:08.677Z,756.00
2018-07-22T12:31:15.646Z,820.00
2018-07-22T12:32:22.725Z,1176.00
2018-07-22T12:33:33.478Z,1280.00
2018-07-22T12:34:38.296Z,1312.00
2018-07-22T12:36:45.273Z,1352.00
2018-07-22T12:37:46.202Z,1328.00
2018-07-22T12:38:57.788Z,1156.00
2018-07-22T12:40:05.878Z,1216.00
2018-07-22T12:41:05.269Z,1148.00
2018-07-22T12:42:18.289Z,1116.00
2018-07-22T12:43:13.988Z,1024.00
2018-07-22T12:44:21.366Z,1100.00
2018-07-22T12:45:30.590Z,1100.00
2018-07-22T12:46:35.862Z,1128.00
2018-07-22T12:47:41.775Z,1136.00
2018-07-22T12:48:45.561Z,1084.00
2018-07-22T12:50:54.589Z,1176.00
2018-07-22T12:55:14.375Z,1344.00
2018-07-22T12:57:26.622Z,1380.00
2018-07-22T12:58:35.597Z,1308.00
2018-07-22T13:00:38.780Z,1212.00
2018-07-22T13:01:47.891Z,1132.00
2018-07-22T13:03:57.891Z,1120.00
2018-07-22T13:05:05.227Z,1080.00
2018-07-22T13:06:12.300Z,1112.00
2018-07-22T13:07:19.679Z,1140.00
2018-07-22T13:08:26.343Z,1156.00
2018-07-22T13:09:23.998Z,1064.00
2018-07-22T13:10:34.856Z,984.00
2018-07-22T13:11:36.807Z,892.00
2018-07-22T13:12:54.325Z,972.00
2018-07-22T13:13:52.387Z,1044.00
2018-07-22T13:14:59.153Z,1168.00
2018-07-22T13:15:59.261Z,1180.00
2018-07-22T13:17:06.333Z,1172.00
2018-07-22T13:18:12.075Z,1044.00
2018-07-22T13:19:25.525Z,1156.00
2018-07-22T13:20:32.366Z,1016.00
2018-07-22T13:21:34.215Z,1064.00
2018-07-22T13:22:34.639Z,1080.00
2018-07-22T13:25:50.627Z,980.00
2018-07-22T13:27:04.158Z,984.00
2018-07-22T13:31:21.891Z,1028.00
2018-07-22T13:33:36.450Z,976.00
2018-07-22T13:34:34.718Z,928.00
2018-07-22T13:35:39.840Z,816.00
2018-07-22T13:36:53.981Z,824.00
2018-07-22T13:37:53.575Z,780.00
2018-07-22T13:39:04.130Z,768.00
2018-07-22T13:40:10.806Z,840.00
2018-07-22T13:41:15.303Z,796.00
2018-07-22T13:42:12.756Z,880.00
2018-07-22T13:43:24.741Z,900.00
2018-07-22T13:44:32.226Z,940.00
2018-07-22T13:45:29.788Z,892.00
2018-07-22T13:46:43.806Z,960.00
2018-07-22T13:47:54.873Z,816.00
2018-07-22T13:48:47.719Z,732.00
2018-07-22T13:49:53.453Z,692.00
2018-07-22T13:51:13.940Z,628.00
2018-07-22T13:52:04.217Z,560.00
2018-07-22T13:53:08.729Z,524.00
2018-07-22T13:54:13.651Z,488.00
2018-07-22T13:55:25.434Z,496.00
2018-07-22T13:58:46.755Z,896.00
2018-07-22T14:00:46.059Z,1124.00
2018-07-22T14:01:54.865Z,1112.00
2018-07-22T14:02:59.581Z,988.00
2018-07-22T14:04:08.497Z,892.00
2018-07-22T14:06:21.168Z,760.00
2018-07-22T14:07:30.644Z,708.00
2018-07-22T14:08:26.447Z,680.00
2018-07-22T14:09:33.531Z,784.00
2018-07-22T14:10:41.722Z,836.00
2018-07-22T14:11:47.463Z,900.00
2018-07-22T14:14:01.501Z,880.00
2018-07-22T14:15:03.568Z,812.00
2018-07-22T14:17:08.075Z,676.00
2018-07-22T14:18:15.249Z,680.00
2018-07-22T14:19:26.622Z,740.00
2018-07-22T14:20:28.575Z,832.00
2018-07-22T14:21:38.960Z,868.00
2018-07-22T14:22:40.261Z,888.00
2018-07-22T14:23:43.647Z,896.00
2018-07-22T14:24:51.132Z,920.00
2018-07-22T14:25:51.855Z,892.00
2018-07-22T14:27:00.975Z,836.00
2018-07-22T14:28:06.956Z,848.00
2018-07-22T14:29:11.745Z,908.00
2018-07-22T14:30:23.424Z,936.00
2018-07-22T14:32:33.981Z,992.00
2018-07-22T14:33:36.755Z,1052.00
2018-07-22T14:35:52.949Z,1068.00
2018-07-22T14:36:53.566Z,1080.00
2018-07-22T14:38:57.266Z,960.00
2018-07-22T14:40:19.399Z,908.00
2018-07-22T14:41:10.702Z,864.00
2018-07-22T14:42:16.950Z,812.00
2018-07-22T14:43:25.556Z,752.00
2018-07-22T14:44:31.204Z,668.00
2018-07-22T14:46:45.161Z,424.00
2018-07-22T14:47:50.159Z,336.00
2018-07-22T14:48:49.149Z,252.00
2018-07-22T14:52:16.325Z,168.00
2018-07-22T14:53:15.492Z,164.00
2018-07-22T14:54:19.283Z,168.00
2018-07-22T14:55:29.685Z,184.00
2018-07-22T14:56:39.479Z,196.00
2018-07-22T14:57:33.335Z,216.00
2018-07-22T14:58:43.578Z,260.00
2018-07-22T14:59:46.145Z,336.00
2018-07-22T15:00:58.545Z,412.00
2018-07-22T15:01:57.322Z,444.00
2018-07-22T15:03:07.158Z,452.00
2018-07-22T15:05:11.883Z,484.00
2018-07-22T15:07:21.111Z,496.00
2018-07-22T15:08:34.944Z,540.00
2018-07-22T15:09:39.372Z,572.00
2018-07-22T15:10:41.202Z,580.00
2018-07-22T15:11:46.739Z,548.00
2018-07-22T15:12:52.687Z,508.00
2018-07-22T15:14:02.452Z,476.00
2018-07-22T15:14:52.906Z,440.00
2018-07-22T15:16:09.094Z,448.00
2018-07-22T15:18:20.268Z,492.00
2018-07-22T15:20:36.457Z,496.00
2018-07-22T15:21:40.270Z,472.00
2018-07-22T15:22:45.620Z,468.00
2018-07-22T15:26:07.832Z,572.00
2018-07-22T15:27:08.858Z,552.00
2018-07-22T15:28:04.975Z,560.00
2018-07-22T15:30:21.072Z,680.00
2018-07-22T15:31:30.184Z,792.00
2018-07-22T15:32:34.939Z,832.00
2018-07-22T15:33:41.359Z,804.00
2018-07-22T15:34:57.957Z,744.00
2018-07-22T15:35:50.386Z,712.00
2018-07-22T15:36:55.512Z,740.00
2018-07-22T15:38:01.970Z,760.00
2018-07-22T15:39:03.001Z,748.00
2018-07-22T15:40:13.723Z,684.00
2018-07-22T15:41:21.959Z,648.00
2018-07-22T15:45:30.488Z,596.00
2018-07-22T15:46:56.808Z,588.00
2018-07-22T15:47:51.901Z,544.00
2018-07-22T15:48:49.961Z,504.00
2018-07-22T15:50:07.171Z,476.00
2018-07-22T15:51:04.106Z,460.00
2018-07-22T15:52:17.427Z,444.00
2018-07-22T15:53:15.282Z,416.00
2018-07-22T15:57:37.734Z,336.00
2018-07-22T15:58:47.165Z,312.00
2018-07-22T15:59:49.730Z,292.00
2018-07-22T16:00:56.802Z,288.00
2018-07-22T16:02:02.263Z,288.00
2018-07-22T16:03:04.499Z,284.00
2018-07-22T16:04:10.346Z,260.00
2018-07-22T16:05:22.439Z,244.00
2018-07-22T16:06:23.358Z,228.00
2018-07-22T16:07:29.006Z,224.00
2018-07-22T16:08:40.986Z,212.00
2018-07-22T16:09:36.596Z,212.00
2018-07-22T16:10:46.835Z,216.00
2018-07-22T16:11:57.081Z,216.00
2018-07-22T16:12:58.245Z,216.00
2018-07-22T16:13:52.086Z,212.00
2018-07-22T16:16:11.959Z,208.00
2018-07-22T16:18:22.518Z,196.00
2018-07-22T16:19:38.704Z,192.00
2018-07-22T16:21:36.975Z,192.00
2018-07-22T16:22:45.483Z,192.00
2018-07-22T16:23:49.584Z,196.00
2018-07-22T16:25:03.009Z,196.00
2018-07-22T16:26:04.140Z,196.00
2018-07-22T16:27:00.357Z,200.00
2018-07-22T16:28:11.730Z,192.00